createdAt,value
2022-10-03T00:01:25.550Z,99714.00
2022-10-03T00:04:28.210Z,99714.78
2022-10-03T00:07:42.743Z,99714.25
2022-10-03T00:10:50.797Z,99715.12
2022-10-03T00:13:54.699Z,99713.78
2022-10-03T00:17:22.080Z,99724.63
2022-10-03T00:20:33.035Z,99725.94
2022-10-03T00:23:54.954Z,99735.81
2022-10-03T00:26:49.510Z,99742.25
2022-10-03T00:29:38.998Z,99725.03
2022-10-03T00:33:07.074Z,99727.59
2022-10-03T00:36:08.368Z,99740.78
2022-10-03T00:39:07.526Z,99730.59
2022-10-03T00:41:56.859Z,99729.97
2022-10-03T00:45:10.882Z,99732.00
2022-10-03T00:48:15.377Z,99735.38
2022-10-03T00:51:39.899Z,99735.06
2022-10-03T00:54:37.321Z,99737.81
2022-10-03T00:57:50.779Z,99742.59
2022-10-03T01:00:38.593Z,99738.38
2022-10-03T01:03:28.438Z,99734.09
2022-10-03T01:06:27.085Z,99724.25
2022-10-03T01:09:27.610Z,99720.59
2022-10-03T01:12:37.493Z,99711.22
2022-10-03T01:15:32.227Z,99724.31
2022-10-03T01:18:29.149Z,99723.00
2022-10-03T01:21:26.799Z,99728.66
2022-10-03T01:24:26.250Z,99739.31
2022-10-03T01:27:15.734Z,99740.97
2022-10-03T01:30:23.322Z,99741.78
2022-10-03T01:33:27.819Z,99752.00
2022-10-03T01:36:26.385Z,99760.78
2022-10-03T01:39:56.261Z,99755.25
2022-10-03T01:43:11.984Z,99757.94
2022-10-03T01:46:17.285Z,99767.88
2022-10-03T01:49:25.946Z,99773.37
2022-10-03T01:52:23.573Z,99764.69
2022-10-03T01:55:26.633Z,99764.94
2022-10-03T01:58:51.614Z,99771.66
2022-10-03T02:01:51.621Z,99773.75
2022-10-03T02:05:03.374Z,99769.62
2022-10-03T02:08:05.846Z,99765.72
2022-10-03T02:11:08.377Z,99774.13
2022-10-03T02:14:13.072Z,99770.66
2022-10-03T02:17:03.959Z,99783.22
2022-10-03T02:19:57.702Z,99775.50
2022-10-03T02:22:51.502Z,99778.94
2022-10-03T02:26:03.535Z,99782.28
2022-10-03T02:29:05.722Z,99782.56
2022-10-03T02:31:57.023Z,99787.22
2022-10-03T02:35:28.799Z,99789.84
2022-10-03T02:38:17.853Z,99795.87
2022-10-03T02:41:32.744Z,99794.56
2022-10-03T02:44:52.455Z,99797.28
2022-10-03T02:48:19.733Z,99793.78
2022-10-03T02:51:12.154Z,99796.69
2022-10-03T02:54:20.327Z,99794.28
2022-10-03T02:57:37.440Z,99794.19
2022-10-03T03:01:01.994Z,99793.19
2022-10-03T03:04:19.079Z,99796.69
2022-10-03T03:07:39.929Z,99787.53
2022-10-03T03:11:00.856Z,99790.88
2022-10-03T03:14:18.844Z,99789.56
2022-10-03T03:17:23.342Z,99795.72
2022-10-03T03:20:46.695Z,99803.94
2022-10-03T03:23:41.543Z,99808.16
2022-10-03T03:26:52.897Z,99803.41
2022-10-03T03:29:48.247Z,99805.97
2022-10-03T03:32:49.669Z,99798.03
2022-10-03T03:35:52.406Z,99804.78
2022-10-03T03:38:50.929Z,99800.09
2022-10-03T03:41:46.306Z,99805.19
2022-10-03T03:44:58.458Z,99809.25
2022-10-03T03:48:12.556Z,99811.56
2022-10-03T03:51:34.449Z,99811.41
2022-10-03T03:54:32.952Z,99817.03
2022-10-03T03:57:34.014Z,99812.00
2022-10-03T04:00:22.278Z,99819.13
2022-10-03T04:03:31.096Z,99814.59
2022-10-03T04:06:36.145Z,99820.44
2022-10-03T04:09:28.652Z,99811.75
2022-10-03T04:12:32.375Z,99813.53
2022-10-03T04:15:27.442Z,99816.63
2022-10-03T04:18:46.242Z,99814.91
2022-10-03T04:21:40.826Z,99813.75
2022-10-03T04:24:46.288Z,99814.78
2022-10-03T04:28:04.055Z,99815.34
2022-10-03T04:30:53.569Z,99830.22
2022-10-03T04:33:59.208Z,99845.31
2022-10-03T04:37:00.363Z,99847.44
2022-10-03T04:40:00.177Z,99845.72
2022-10-03T04:43:18.222Z,99855.25
2022-10-03T04:46:25.350Z,99853.84
2022-10-03T04:49:29.451Z,99849.75
2022-10-03T04:52:22.262Z,99857.13
2022-10-03T04:55:21.292Z,99860.75
2022-10-03T04:58:17.498Z,99863.37
2022-10-03T05:01:22.126Z,99863.78
2022-10-03T05:04:55.509Z,99861.97
2022-10-03T05:07:56.046Z,99866.22
2022-10-03T05:10:51.256Z,99881.22
2022-10-03T05:13:51.671Z,99877.34
2022-10-03T05:16:48.515Z,99878.03
2022-10-03T05:19:59.233Z,99877.56
2022-10-03T05:23:14.221Z,99875.34
2022-10-03T05:26:43.493Z,99874.75
2022-10-03T05:29:33.216Z,99864.41
2022-10-03T05:32:41.259Z,99868.66
2022-10-03T05:35:36.870Z,99866.81
2022-10-03T05:38:46.879Z,99857.91
2022-10-03T05:41:36.372Z,99868.38
2022-10-03T05:44:33.086Z,99860.72
2022-10-03T05:47:48.994Z,99858.72
2022-10-03T05:51:21.436Z,99875.25
2022-10-03T05:54:33.256Z,99879.00
2022-10-03T05:57:42.786Z,99877.66
2022-10-03T06:00:48.198Z,99874.34
2022-10-03T06:03:53.024Z,99883.88
2022-10-03T06:06:51.359Z,99888.22
2022-10-03T06:09:40.575Z,99884.84
2022-10-03T06:12:29.605Z,99893.53
2022-10-03T06:15:37.985Z,99895.47
2022-10-03T06:18:48.384Z,99920.72
2022-10-03T06:21:40.702Z,99906.97
2022-10-03T06:25:05.171Z,99918.63
2022-10-03T06:28:13.749Z,99930.16
2022-10-03T06:31:21.429Z,99933.91
2022-10-03T06:34:25.373Z,99944.22
2022-10-03T06:37:26.660Z,99933.91
2022-10-03T06:40:35.085Z,99929.72
2022-10-03T06:43:42.494Z,99937.28
2022-10-03T06:46:45.689Z,99931.16
2022-10-03T06:50:10.405Z,99932.16
2022-10-03T06:53:32.051Z,99934.03
2022-10-03T06:56:31.729Z,99943.66
2022-10-03T06:59:45.116Z,99924.69
2022-10-03T07:02:41.063Z,99941.34
2022-10-03T07:06:03.093Z,99934.34
2022-10-03T07:08:59.766Z,99950.31
2022-10-03T07:12:20.095Z,99936.53
2022-10-03T07:15:17.756Z,99925.13
2022-10-03T07:18:23.193Z,99933.09
2022-10-03T07:21:18.401Z,99939.59
2022-10-03T07:24:28.964Z,99929.31
2022-10-03T07:27:39.689Z,99948.31
2022-10-03T07:30:32.306Z,99948.47
2022-10-03T07:33:39.001Z,99937.63
2022-10-03T07:36:59.178Z,99950.53
2022-10-03T07:40:10.011Z,99945.91
2022-10-03T07:43:11.733Z,99938.94
2022-10-03T07:46:28.726Z,99947.72
2022-10-03T07:49:37.532Z,99950.69
2022-10-03T07:52:29.636Z,99943.19
2022-10-03T07:55:55.133Z,99955.72
2022-10-03T07:58:54.080Z,99962.59
2022-10-03T08:01:49.479Z,99959.69
2022-10-03T08:05:11.514Z,99980.72
2022-10-03T08:08:05.312Z,99961.31
2022-10-03T08:11:21.881Z,99966.41
2022-10-03T08:14:24.266Z,99970.00
2022-10-03T08:17:32.607Z,99963.81
2022-10-03T08:20:38.037Z,99970.91
2022-10-03T08:23:58.266Z,99961.53
2022-10-03T08:27:03.205Z,99966.75
2022-10-03T08:30:17.656Z,99959.09
2022-10-03T08:33:15.828Z,99973.25
2022-10-03T08:36:14.806Z,99948.59
2022-10-03T08:39:13.062Z,99942.28
2022-10-03T08:42:05.242Z,99956.28
2022-10-03T08:44:57.744Z,99959.53
2022-10-03T08:48:03.624Z,99964.13
2022-10-03T08:51:14.193Z,99952.66
2022-10-03T08:54:14.420Z,99957.75
2022-10-03T08:57:19.631Z,99951.31
2022-10-03T09:00:23.226Z,99962.97
2022-10-03T09:03:39.324Z,99960.41
2022-10-03T09:07:16.070Z,99971.94
2022-10-03T09:10:55.161Z,99991.19
2022-10-03T09:14:03.322Z,99972.41
2022-10-03T09:17:08.393Z,99957.31
2022-10-03T09:20:13.854Z,99962.91
2022-10-03T09:23:02.944Z,99975.72
2022-10-03T09:26:13.985Z,99961.75
2022-10-03T09:29:18.686Z,99969.56
2022-10-03T09:32:42.909Z,99985.41
2022-10-03T09:35:56.870Z,99965.53
2022-10-03T09:38:46.222Z,99993.34
2022-10-03T09:42:03.124Z,99993.03
2022-10-03T09:45:27.146Z,99980.91
2022-10-03T09:48:38.150Z,99985.66
2022-10-03T09:52:06.704Z,99989.56
2022-10-03T09:55:07.918Z,99980.50
2022-10-03T09:58:16.513Z,99994.88
2022-10-03T10:01:23.290Z,100009.31
2022-10-03T10:04:32.438Z,99999.91
2022-10-03T10:08:03.489Z,99996.41
2022-10-03T10:11:05.033Z,100000.31
2022-10-03T10:14:21.742Z,99986.44
2022-10-03T10:17:42.523Z,99987.91
2022-10-03T10:21:11.469Z,99988.53
2022-10-03T10:24:31.692Z,100000.28
2022-10-03T10:28:07.139Z,99991.28
2022-10-03T10:30:59.702Z,100009.03
2022-10-03T10:34:00.689Z,100001.50
2022-10-03T10:37:19.284Z,100004.22
2022-10-03T10:40:51.051Z,99996.88
2022-10-03T10:43:57.410Z,100001.66
2022-10-03T10:47:10.024Z,99992.59
2022-10-03T10:50:11.705Z,100001.62
2022-10-03T10:53:09.615Z,99985.63
2022-10-03T10:56:39.086Z,99993.22
2022-10-03T10:59:34.702Z,99984.47
2022-10-03T11:02:52.127Z,99989.53
2022-10-03T11:05:56.533Z,99994.88
2022-10-03T11:08:46.104Z,99985.31
2022-10-03T11:12:00.093Z,99991.72
2022-10-03T11:15:24.870Z,99979.22
2022-10-03T11:18:39.502Z,99986.88
2022-10-03T11:22:00.074Z,99980.28
2022-10-03T11:25:30.637Z,99974.50
2022-10-03T11:28:51.687Z,99976.53
2022-10-03T11:32:09.738Z,99982.38
2022-10-03T11:35:11.312Z,99976.34
2022-10-03T11:38:19.367Z,99986.91
2022-10-03T11:41:08.434Z,99978.81
2022-10-03T11:44:15.528Z,99980.09
2022-10-03T11:47:21.174Z,99970.31
2022-10-03T11:50:26.827Z,99975.16
2022-10-03T11:53:28.293Z,99971.47
2022-10-03T11:56:26.655Z,99971.03
2022-10-03T11:59:33.619Z,99976.19
2022-10-03T12:02:22.770Z,99967.69
2022-10-03T12:05:28.494Z,99967.28
2022-10-03T12:08:52.165Z,99981.50
2022-10-03T12:11:53.733Z,99976.63
2022-10-03T12:14:47.667Z,99977.31
2022-10-03T12:17:37.021Z,99978.63
2022-10-03T12:20:43.017Z,99980.44
2022-10-03T12:23:41.804Z,99978.28
2022-10-03T12:26:53.584Z,99991.34
2022-10-03T12:29:45.754Z,99975.75
2022-10-03T12:33:09.908Z,99961.78
2022-10-03T12:36:09.930Z,99960.09
2022-10-03T12:39:14.748Z,99968.63
2022-10-03T12:42:26.998Z,99965.06
2022-10-03T12:45:27.645Z,99972.50
2022-10-03T12:48:23.453Z,99952.97
2022-10-03T12:51:12.422Z,99960.19
2022-10-03T12:54:26.770Z,99958.19
2022-10-03T12:57:35.091Z,99951.34
2022-10-03T13:00:27.770Z,99947.03
2022-10-03T13:03:32.930Z,99971.81
2022-10-03T13:06:44.398Z,99981.88
2022-10-03T13:09:58.883Z,100000.59
2022-10-03T13:13:13.702Z,100005.31
2022-10-03T13:16:16.526Z,100005.25
2022-10-03T13:19:14.440Z,100004.78
2022-10-03T13:22:27.598Z,99975.00
2022-10-03T13:25:35.236Z,99978.25
2022-10-03T13:28:31.546Z,99949.16
2022-10-03T13:31:23.829Z,99958.28
2022-10-03T13:34:18.999Z,99965.16
2022-10-03T13:37:33.706Z,99987.22
2022-10-03T13:40:20.362Z,99970.22
2022-10-03T13:43:13.783Z,99966.81
2022-10-03T13:46:00.778Z,99977.84
2022-10-03T13:49:01.040Z,99984.34
2022-10-03T13:51:58.832Z,99970.31
2022-10-03T13:55:07.207Z,99964.09
2022-10-03T13:58:15.604Z,99981.66
2022-10-03T14:01:11.526Z,99955.37
2022-10-03T14:04:23.122Z,99956.63
2022-10-03T14:07:33.550Z,99963.50
2022-10-03T14:10:30.732Z,99964.44
2022-10-03T14:13:43.578Z,99960.03
2022-10-03T14:16:56.594Z,99963.28
2022-10-03T14:20:02.891Z,99962.25
2022-10-03T14:23:02.903Z,99961.91
2022-10-03T14:26:00.463Z,99973.44
2022-10-03T14:28:51.723Z,99951.72
2022-10-03T14:32:17.576Z,99972.97
2022-10-03T14:35:38.696Z,99976.41
2022-10-03T14:39:03.318Z,99978.75
2022-10-03T14:41:52.779Z,99975.19
2022-10-03T14:44:42.446Z,99981.44
2022-10-03T14:47:34.896Z,100000.09
2022-10-03T14:50:23.903Z,99989.41
2022-10-03T14:53:25.097Z,99990.28
2022-10-03T14:56:12.685Z,99992.87
2022-10-03T14:59:02.269Z,99994.19
2022-10-03T15:01:50.885Z,99992.13
2022-10-03T15:04:41.828Z,99980.84
2022-10-03T15:07:37.985Z,99985.41
2022-10-03T15:10:26.992Z,99981.06
2022-10-03T15:13:14.361Z,99988.19
2022-10-03T15:16:01.638Z,99988.44
2022-10-03T15:19:17.822Z,99988.88
2022-10-03T15:22:24.485Z,99988.38
2022-10-03T15:25:27.060Z,99974.81
2022-10-03T15:28:21.128Z,99984.16
2022-10-03T15:31:10.239Z,99973.56
2022-10-03T15:33:57.608Z,99977.16
2022-10-03T15:36:48.810Z,99982.81
2022-10-03T15:39:37.047Z,99980.50
2022-10-03T15:42:25.612Z,99971.88
2022-10-03T15:45:19.575Z,99972.53
2022-10-03T15:48:13.156Z,99976.13
2022-10-03T15:51:13.642Z,99965.19
2022-10-03T15:54:02.412Z,99964.13
2022-10-03T15:56:52.597Z,99969.22
2022-10-03T15:59:44.772Z,99965.59
2022-10-03T16:02:35.002Z,99964.13
2022-10-03T16:05:24.987Z,99980.66
2022-10-03T16:08:18.117Z,99978.84
2022-10-03T16:11:18.316Z,99985.19
2022-10-03T16:14:25.670Z,99980.03
2022-10-03T16:17:22.194Z,99986.81
2022-10-03T16:20:17.564Z,99992.50
2022-10-03T16:23:25.882Z,99995.69
2022-10-03T16:26:24.838Z,100009.38
2022-10-03T16:29:33.704Z,99993.59
2022-10-03T16:32:23.785Z,99994.97
2022-10-03T16:35:24.899Z,100010.31
2022-10-03T16:38:35.590Z,100005.56
2022-10-03T16:41:25.182Z,100008.25
2022-10-03T16:44:39.973Z,100004.66
2022-10-03T16:47:34.271Z,100008.44
2022-10-03T16:50:24.896Z,100011.47
2022-10-03T16:53:12.216Z,100007.59
2022-10-03T16:56:05.414Z,100002.41
2022-10-03T16:58:58.723Z,100012.53
2022-10-03T17:01:53.669Z,100011.19
2022-10-03T17:04:42.493Z,100012.53
2022-10-03T17:07:41.182Z,100009.09
2022-10-03T17:10:38.276Z,100015.75
2022-10-03T17:13:39.207Z,100006.97
2022-10-03T17:16:44.140Z,100009.31
2022-10-03T17:19:33.664Z,100024.53
2022-10-03T17:22:22.636Z,100019.91
2022-10-03T17:25:41.201Z,100021.72
2022-10-03T17:28:55.050Z,100024.06
2022-10-03T17:31:53.685Z,100023.53
2022-10-03T17:34:44.245Z,100021.44
2022-10-03T17:37:47.977Z,100029.66
2022-10-03T17:40:43.952Z,100036.38
2022-10-03T17:44:09.627Z,100029.00
2022-10-03T17:47:06.678Z,100039.63
2022-10-03T17:50:02.251Z,100040.97
2022-10-03T17:52:49.021Z,100034.06
2022-10-03T17:55:41.209Z,100032.12
2022-10-03T17:58:29.880Z,100044.94
2022-10-03T18:01:18.317Z,100042.53
2022-10-03T18:04:07.351Z,100037.03
2022-10-03T18:06:57.013Z,100042.47
2022-10-03T18:09:47.085Z,100054.41
2022-10-03T18:12:40.439Z,100046.03
2022-10-03T18:15:41.509Z,100047.28
2022-10-03T18:18:54.040Z,100042.91
2022-10-03T18:21:58.713Z,100042.81
2022-10-03T18:24:55.619Z,100040.84
2022-10-03T18:27:57.979Z,100048.53
2022-10-03T18:30:50.955Z,100042.91
2022-10-03T18:33:42.505Z,100047.34
2022-10-03T18:36:38.790Z,100046.16
2022-10-03T18:39:34.187Z,100051.03
2022-10-03T18:42:23.918Z,100059.22
2022-10-03T18:45:19.956Z,100059.12
2022-10-03T18:48:14.361Z,100066.63
2022-10-03T18:51:27.371Z,100065.91
2022-10-03T18:54:17.763Z,100072.81
2022-10-03T18:57:13.952Z,100074.25
2022-10-03T19:00:08.410Z,100071.19
2022-10-03T19:03:15.787Z,100072.88
2022-10-03T19:06:08.585Z,100076.34
2022-10-03T19:09:26.302Z,100085.50
2022-10-03T19:12:22.787Z,100079.19
2022-10-03T19:15:38.931Z,100077.53
2022-10-03T19:18:28.285Z,100066.91
2022-10-03T19:21:20.938Z,100085.84
2022-10-03T19:24:12.069Z,100072.47
2022-10-03T19:27:01.223Z,100076.38
2022-10-03T19:29:58.202Z,100073.38
2022-10-03T19:32:54.195Z,100074.16
2022-10-03T19:35:46.829Z,100073.97
2022-10-03T19:38:38.139Z,100082.03
2022-10-03T19:41:42.254Z,100085.31
2022-10-03T19:44:28.877Z,100079.50
2022-10-03T19:47:20.486Z,100084.66
2022-10-03T19:50:19.229Z,100086.50
2022-10-03T19:53:15.511Z,100086.28
2022-10-03T19:56:03.861Z,100084.97
2022-10-03T19:59:36.450Z,100093.03
2022-10-03T20:02:25.184Z,100081.31
2022-10-03T20:05:36.369Z,100083.16
2022-10-03T20:08:39.085Z,100090.63
2022-10-03T20:11:41.056Z,100094.87
2022-10-03T20:14:34.642Z,100089.38
2022-10-03T20:17:23.387Z,100098.22
2022-10-03T20:20:17.545Z,100100.22
2022-10-03T20:23:06.509Z,100098.94
2022-10-03T20:26:00.943Z,100106.22
2022-10-03T20:28:59.468Z,100113.56
2022-10-03T20:31:46.752Z,100107.19
2022-10-03T20:34:35.527Z,100110.91
2022-10-03T20:37:36.115Z,100117.75
2022-10-03T20:40:30.994Z,100122.13
2022-10-03T20:43:39.085Z,100122.53
2022-10-03T20:46:37.621Z,100126.34
2022-10-03T20:49:34.566Z,100118.84
2022-10-03T20:52:21.829Z,100122.88
2022-10-03T20:55:18.406Z,100126.78
2022-10-03T20:58:06.613Z,100124.44
2022-10-03T21:01:00.422Z,100135.94
2022-10-03T21:03:52.624Z,100131.03
2022-10-03T21:06:57.782Z,100126.38
2022-10-03T21:10:09.617Z,100127.97
2022-10-03T21:13:00.202Z,100139.19
2022-10-03T21:15:51.077Z,100145.16
2022-10-03T21:18:40.502Z,100145.34
2022-10-03T21:21:31.328Z,100151.19
2022-10-03T21:24:28.846Z,100148.31
2022-10-03T21:27:16.424Z,100152.37
2022-10-03T21:30:15.854Z,100160.38
2022-10-03T21:33:21.153Z,100158.03
2022-10-03T21:36:34.584Z,100150.56
2022-10-03T21:39:37.164Z,100151.72
2022-10-03T21:42:40.840Z,100158.19
2022-10-03T21:45:43.268Z,100141.00
2022-10-03T21:48:52.677Z,100147.44
2022-10-03T21:51:48.652Z,100158.56
2022-10-03T21:54:50.137Z,100145.63
2022-10-03T21:57:46.987Z,100150.28
2022-10-03T22:00:58.426Z,100141.22
2022-10-03T22:03:59.222Z,100141.31
2022-10-03T22:07:17.758Z,100144.41
2022-10-03T22:10:19.158Z,100156.22
2022-10-03T22:13:09.174Z,100156.66
2022-10-03T22:16:04.751Z,100162.75
2022-10-03T22:19:00.953Z,100159.31
2022-10-03T22:21:56.000Z,100158.31
2022-10-03T22:24:52.338Z,100167.94
2022-10-03T22:27:48.521Z,100162.37
2022-10-03T22:30:39.376Z,100165.34
2022-10-03T22:33:50.857Z,100161.44
2022-10-03T22:36:37.643Z,100168.72
2022-10-03T22:39:23.987Z,100167.00
2022-10-03T22:42:13.411Z,100151.81
2022-10-03T22:45:03.777Z,100156.78
2022-10-03T22:47:53.198Z,100147.12
2022-10-03T22:50:41.877Z,100149.19
2022-10-03T22:53:31.926Z,100144.78
2022-10-03T22:56:41.673Z,100150.88
2022-10-03T22:59:53.294Z,100135.00
2022-10-03T23:02:49.932Z,100130.25
2022-10-03T23:06:02.621Z,100141.00
2022-10-03T23:09:03.472Z,100124.84
2022-10-03T23:11:50.714Z,100134.09
2022-10-03T23:14:41.185Z,100137.47
2022-10-03T23:18:05.128Z,100140.62
2022-10-03T23:21:05.429Z,100134.72
2022-10-03T23:24:22.168Z,100122.75
2022-10-03T23:27:14.319Z,100127.28
2022-10-03T23:30:12.595Z,100136.84
2022-10-03T23:33:00.589Z,100127.44
2022-10-03T23:35:47.329Z,100141.44
2022-10-03T23:38:33.829Z,100142.84
2022-10-03T23:41:32.309Z,100135.31
2022-10-03T23:44:32.032Z,100129.84
2022-10-03T23:47:26.952Z,100132.59
2022-10-03T23:50:35.192Z,100145.84
2022-10-03T23:53:42.594Z,100145.06
2022-10-03T23:56:33.682Z,100130.38
2022-10-03T23:59:23.101Z,100128.66
